Time;durP1;ratioP1;P1;durP2;ratioP2;P2;SDS_P1;SDS_P2;PMS_P1;PMS_P2;Temp;Humidity;BMP_temperature;BMP_pressure;BME280_temperature;BME280_humidity;BME280_pressure;Samples;Min_cycle;Max_cycle;Signal;HPM_P1;HPM_P2
2023/01/24 00:00:41;;;;;;;17.05;11.70;;;;;;;5.48;62.25;103719.38;5099642;28;20052;-59
2023/01/24 00:03:11;;;;;;;14.57;10.90;;;;;;;5.49;61.87;103723.72;5102756;28;20040;-59
2023/01/24 00:05:39;;;;;;;16.98;11.38;;;;;;;5.42;61.73;103719.84;5102237;28;20040;-59
2023/01/24 00:08:07;;;;;;;16.35;11.40;;;;;;;5.44;61.80;103717.03;5103662;28;20101;-59
2023/01/24 00:10:36;;;;;;;18.23;12.00;;;;;;;5.46;61.50;103728.44;5099879;28;20107;-59
2023/01/24 00:13:03;;;;;;;16.85;11.65;;;;;;;5.43;61.58;103723.34;5104716;28;20530;-59
2023/01/24 00:15:31;;;;;;;16.10;11.25;;;;;;;5.42;61.59;103721.66;5096876;28;20040;-59
2023/01/24 00:18:01;;;;;;;16.25;11.48;;;;;;;5.38;61.69;103720.19;5103685;28;20128;-59
2023/01/24 00:20:28;;;;;;;16.95;10.98;;;;;;;5.38;61.64;103722.84;5103449;28;20122;-59
2023/01/24 00:22:56;;;;;;;14.48;10.88;;;;;;;5.38;61.63;103720.19;5100173;28;20076;-59
2023/01/24 00:25:24;;;;;;;16.02;11.68;;;;;;;5.40;61.50;103712.91;5102324;28;20051;-59
2023/01/24 00:27:52;;;;;;;15.40;11.23;;;;;;;5.43;62.09;103718.00;5102618;28;20113;-59
2023/01/24 00:30:19;;;;;;;16.23;10.95;;;;;;;5.40;61.69;103704.91;5097195;28;20044;-59
2023/01/24 00:32:47;;;;;;;15.95;10.52;;;;;;;5.45;61.58;103710.75;5103446;28;20127;-59
2023/01/24 00:35:16;;;;;;;14.30;10.52;;;;;;;5.43;61.76;103713.53;5100176;28;20073;-59
2023/01/24 00:37:44;;;;;;;15.02;11.20;;;;;;;5.41;61.39;103712.81;5103861;28;20107;-58
2023/01/24 00:40:12;;;;;;;15.55;11.35;;;;;;;5.43;62.31;103712.69;5104407;28;20087;-58
2023/01/24 00:42:40;;;;;;;16.42;10.93;;;;;;;5.43;61.99;103702.88;5099034;28;20515;-59
2023/01/24 00:45:08;;;;;;;14.57;10.95;;;;;;;5.38;61.81;103707.69;5097111;28;20048;-59
2023/01/24 00:47:36;;;;;;;14.77;10.20;;;;;;;5.36;62.08;103704.31;5092544;28;20076;-58
2023/01/24 00:50:04;;;;;;;16.10;10.55;;;;;;;5.36;61.35;103698.97;5097028;28;20048;-59
2023/01/24 00:52:36;;;;;;;15.25;10.60;;;;;;;5.39;61.79;103700.53;5097213;28;20040;-59
2023/01/24 00:55:04;;;;;;;18.15;11.02;;;;;;;5.38;61.46;103694.38;5102537;28;20058;-59
2023/01/24 00:57:32;;;;;;;16.52;11.05;;;;;;;5.37;62.00;103692.66;5093696;28;20044;-59
2023/01/24 01:00:00;;;;;;;14.70;10.57;;;;;;;5.36;61.61;103698.13;5103044;28;20150;-59
2023/01/24 01:02:27;;;;;;;13.85;10.02;;;;;;;5.36;61.56;103698.13;5098410;28;20044;-59
2023/01/24 01:04:55;;;;;;;13.70;9.75;;;;;;;5.36;61.73;103698.13;5101814;28;20462;-59
2023/01/24 01:07:24;;;;;;;14.43;10.23;;;;;;;5.37;61.71;103708.66;5103845;28;20048;-59
2023/01/24 01:09:53;;;;;;;13.48;10.07;;;;;;;5.31;61.89;103692.28;5097547;28;20207;-58
2023/01/24 01:12:21;;;;;;;14.65;10.32;;;;;;;5.31;61.58;103701.13;5103060;28;20048;-59
2023/01/24 01:14:49;;;;;;;14.27;9.55;;;;;;;5.31;61.60;103701.13;5102734;28;20051;-59
2023/01/24 01:17:16;;;;;;;14.95;10.43;;;;;;;5.33;61.43;103696.53;5098519;28;20112;-59
2023/01/24 01:19:44;;;;;;;15.20;10.77;;;;;;;5.34;61.73;103698.22;5100658;28;20044;-59
2023/01/24 01:22:12;;;;;;;14.63;10.10;;;;;;;5.35;61.58;103685.75;5101310;28;20054;-58
2023/01/24 01:24:40;;;;;;;14.73;10.23;;;;;;;5.35;61.78;103685.75;5101973;28;20150;-59
2023/01/24 01:27:09;;;;;;;15.80;10.00;;;;;;;5.36;62.01;103693.63;5100174;28;20569;-59
2023/01/24 01:29:37;;;;;;;13.05;9.52;;;;;;;5.32;61.58;103691.31;5091595;28;20072;-59
2023/01/24 01:32:05;;;;;;;14.13;9.88;;;;;;;5.27;61.71;103697.00;5100977;28;20044;-59
2023/01/24 01:34:33;;;;;;;14.98;10.02;;;;;;;5.21;62.05;103690.31;5102811;28;20063;-59
2023/01/24 01:37:01;;;;;;;14.25;10.02;;;;;;;5.22;61.82;103689.34;5100714;28;20424;-59
2023/01/24 01:39:29;;;;;;;14.98;10.40;;;;;;;5.17;61.74;103683.56;5097418;28;20143;-59
2023/01/24 01:41:56;;;;;;;13.25;9.43;;;;;;;5.27;61.62;103690.81;5091733;28;20044;-59
2023/01/24 01:44:40;;;;;;;15.50;10.98;;;;;;;5.29;61.23;103695.06;5102136;28;20048;-59
2023/01/24 01:47:18;;;;;;;14.45;9.82;;;;;;;5.33;61.13;103695.69;5100449;28;20048;-59
2023/01/24 01:49:52;;;;;;;14.82;10.43;;;;;;;5.35;61.43;103693.75;5095934;28;20051;-59
2023/01/24 01:52:23;;;;;;;12.68;9.18;;;;;;;5.35;60.99;103689.28;5099714;28;20046;-59
2023/01/24 01:54:53;;;;;;;14.85;10.20;;;;;;;5.33;61.51;103690.34;5102386;28;20123;-59
2023/01/24 01:57:25;;;;;;;13.75;10.40;;;;;;;5.34;61.72;103697.38;5101790;28;20392;-59
2023/01/24 01:59:59;;;;;;;14.07;10.15;;;;;;;5.27;61.27;103697.00;5101029;28;20047;-58
2023/01/24 02:02:29;;;;;;;14.30;9.98;;;;;;;5.26;62.00;103694.44;5093956;28;20059;-59
2023/01/24 02:05:00;;;;;;;14.82;10.32;;;;;;;5.27;61.43;103693.50;5098970;28;20047;-59
2023/01/24 02:07:32;;;;;;;13.23;9.38;;;;;;;5.29;61.75;103699.56;5097357;28;20040;-59
2023/01/24 02:10:01;;;;;;;18.33;11.82;;;;;;;5.26;62.13;103689.13;5096768;28;20075;-59
2023/01/24 02:12:31;;;;;;;15.52;10.43;;;;;;;5.29;61.94;103691.56;5098431;28;20072;-59
2023/01/24 02:17:51;;;;;;;15.38;10.20;;;;;;;5.27;62.16;103698.81;5095137;28;20093;-59
2023/01/24 02:20:33;;;;;;;16.40;10.80;;;;;;;5.23;62.28;103693.72;5088576;28;20044;-59
2023/01/24 02:23:14;;;;;;;15.90;10.73;;;;;;;5.26;62.08;103689.13;5094552;28;20071;-59
2023/01/24 02:25:48;;;;;;;14.23;10.45;;;;;;;5.25;62.31;103690.94;5088074;28;20055;-58
2023/01/24 02:28:18;;;;;;;14.82;10.52;;;;;;;5.27;61.65;103685.50;5102482;28;20076;-58
2023/01/24 02:30:46;;;;;;;14.82;10.77;;;;;;;5.28;62.30;103687.19;5100709;28;20116;-58
2023/01/24 02:33:18;;;;;;;14.18;10.38;;;;;;;5.28;61.94;103690.69;5097946;28;20070;-59
2023/01/24 02:35:47;;;;;;;15.20;10.88;;;;;;;5.24;62.00;103682.09;5091796;28;20044;-59
2023/01/24 02:38:18;;;;;;;14.75;10.20;;;;;;;5.24;62.31;103683.91;5100373;28;20040;-59
2023/01/24 02:40:50;;;;;;;15.68;10.40;;;;;;;5.26;61.85;103694.44;5104837;28;20044;-59
2023/01/24 02:43:22;;;;;;;15.30;11.02;;;;;;;5.25;62.15;103690.94;5095331;28;20055;-59
2023/01/24 02:45:50;;;;;;;14.50;10.18;;;;;;;5.26;61.91;103689.97;5096809;28;20131;-59
2023/01/24 02:48:18;;;;;;;15.40;10.85;;;;;;;5.24;62.19;103687.41;5096329;28;20081;-59
2023/01/24 02:53:31;;;;;;;15.07;11.18;;;;;;;5.25;62.23;103685.59;5098347;28;20052;-59
2023/01/24 02:58:47;;;;;;;16.83;11.63;;;;;;;5.29;62.28;103694.22;5097561;28;20048;-59
2023/01/24 03:01:25;;;;;;;17.85;11.60;;;;;;;5.27;62.01;103694.34;5097728;28;20055;-59
2023/01/24 03:03:54;;;;;;;14.98;10.93;;;;;;;5.28;62.67;103693.38;5089620;28;20052;-58
2023/01/24 03:06:22;;;;;;;17.83;10.90;;;;;;;5.29;62.75;103691.56;5090161;28;20061;-59
2023/01/24 03:08:50;;;;;;;17.90;12.55;;;;;;;5.31;62.40;103681.63;5098697;28;20525;-58
2023/01/24 03:11:17;;;;;;;15.13;10.48;;;;;;;5.31;62.19;103679.81;5106348;28;20135;-59
2023/01/24 03:35:54;;;;;;;15.20;10.63;;;;;;;5.27;62.23;103672.16;5104255;28;20044;-59
2023/01/24 03:41:08;;;;;;;15.70;11.23;;;;;;;5.25;62.56;103682.94;5098095;28;20079;-59
2023/01/24 03:43:35;;;;;;;15.27;11.07;;;;;;;5.24;62.20;103673.25;5104560;28;20043;-58
2023/01/24 03:46:05;;;;;;;14.63;10.63;;;;;;;5.26;62.23;103671.31;5103908;28;20332;-59
2023/01/24 03:48:36;;;;;;;16.48;11.05;;;;;;;5.26;62.20;103679.31;5101696;28;20526;-59
2023/01/24 03:53:51;;;;;;;15.23;10.50;;;;;;;5.24;62.05;103670.56;5101946;28;20045;-59
2023/01/24 03:56:18;;;;;;;16.80;11.60;;;;;;;5.22;62.19;103670.69;5104921;28;20390;-58
2023/01/24 03:58:46;;;;;;;17.45;11.45;;;;;;;5.22;62.55;103678.69;5100705;28;20047;-59
2023/01/24 04:01:15;;;;;;;14.95;10.52;;;;;;;5.22;62.21;103683.16;5102560;28;20075;-58
2023/01/24 04:03:43;;;;;;;15.55;10.27;;;;;;;5.17;62.50;103688.88;5101818;28;20052;-59
2023/01/24 04:06:11;;;;;;;15.73;11.23;;;;;;;5.15;62.52;103677.50;5099843;28;20041;-59
2023/01/24 04:08:38;;;;;;;14.80;10.55;;;;;;;5.18;63.01;103677.25;5103667;28;20547;-58
2023/01/24 04:11:06;;;;;;;17.40;12.15;;;;;;;5.14;62.50;103672.28;5098218;28;20080;-59
2023/01/24 04:13:34;;;;;;;15.55;11.23;;;;;;;5.16;62.78;103673.00;5094282;28;20045;-59
2023/01/24 04:16:02;;;;;;;18.05;11.05;;;;;;;5.16;62.41;103678.34;5101585;28;20079;-59
2023/01/24 04:18:31;;;;;;;22.88;11.95;;;;;;;5.18;62.43;103677.25;5099665;28;20040;-59
2023/01/24 04:21:01;;;;;;;15.13;10.75;;;;;;;5.18;62.65;103679.91;5104089;28;20123;-59
2023/01/24 04:23:29;;;;;;;15.98;10.70;;;;;;;5.21;62.35;103678.81;5101906;28;20093;-59
2023/01/24 04:25:59;;;;;;;15.35;11.18;;;;;;;5.19;62.37;103678.97;5095519;28;20110;-58
2023/01/24 04:28:28;;;;;;;15.32;10.75;;;;;;;5.20;62.00;103680.63;5104559;28;20062;-58
2023/01/24 04:30:57;;;;;;;16.63;11.68;;;;;;;5.19;62.01;103692.28;5100498;28;20044;-59
2023/01/24 04:33:25;;;;;;;15.00;10.30;;;;;;;5.21;61.90;103684.13;5102785;28;20492;-59
2023/01/24 04:35:57;;;;;;;15.88;11.43;;;;;;;5.20;62.56;103685.97;5093775;28;20072;-60
2023/01/24 04:38:25;;;;;;;15.77;10.32;;;;;;;5.21;62.45;103678.81;5103084;28;20131;-59
2023/01/24 04:41:00;;;;;;;16.17;11.18;;;;;;;5.20;61.89;103675.28;5103423;28;20043;-59
2023/01/24 04:43:28;;;;;;;15.57;11.45;;;;;;;5.19;62.36;103680.78;5099256;28;20055;-59
2023/01/24 04:45:56;;;;;;;16.48;10.82;;;;;;;5.22;62.09;103675.19;5100842;28;20472;-59
2023/01/24 04:48:24;;;;;;;15.93;10.80;;;;;;;5.21;62.59;103682.31;5095861;28;20052;-58
2023/01/24 04:50:58;;;;;;;15.20;10.93;;;;;;;5.22;62.55;103684.03;5101007;28;20058;-58
2023/01/24 04:53:26;;;;;;;15.65;10.23;;;;;;;5.23;62.26;103685.72;5103948;28;20056;-59
2023/01/24 04:55:54;;;;;;;16.70;11.52;;;;;;;5.21;62.45;103677.00;5103122;28;20075;-58
2023/01/24 04:58:21;;;;;;;15.70;11.02;;;;;;;5.22;62.36;103681.34;5103936;28;20204;-59
2023/01/24 05:00:49;;;;;;;16.77;11.55;;;;;;;5.21;62.19;103682.31;5101544;28;20099;-59
2023/01/24 05:03:17;;;;;;;15.88;10.95;;;;;;;5.20;62.56;103685.97;5086682;28;20041;-59
2023/01/24 05:05:49;;;;;;;17.67;10.90;;;;;;;5.19;62.42;103686.09;5101100;28;20138;-59
2023/01/24 05:08:19;;;;;;;15.07;10.57;;;;;;;5.19;62.84;103683.44;5101132;28;20092;-59
2023/01/24 05:10:47;;;;;;;15.45;10.77;;;;;;;5.17;62.62;103683.56;5094799;28;20086;-58
2023/01/24 05:13:15;;;;;;;16.27;10.95;;;;;;;5.19;62.28;103689.63;5103591;28;20052;-59
2023/01/24 05:15:47;;;;;;;17.23;12.15;;;;;;;5.16;62.38;103689.84;5100050;28;20083;-59
2023/01/24 05:18:15;;;;;;;16.65;11.15;;;;;;;5.14;61.86;103688.28;5102962;28;20043;-59
2023/01/24 05:20:42;;;;;;;15.23;11.30;;;;;;;5.12;61.95;103692.88;5102107;28;20120;-59
2023/01/24 05:23:10;;;;;;;16.60;12.32;;;;;;;5.11;62.62;103692.03;5101038;28;20070;-59
2023/01/24 05:25:39;;;;;;;16.17;10.52;;;;;;;5.11;62.00;103696.50;5096162;28;20127;-59
2023/01/24 05:28:07;;;;;;;17.45;11.07;;;;;;;5.11;62.15;103697.34;5102183;28;20083;-59
2023/01/24 05:30:35;;;;;;;17.35;11.65;;;;;;;5.08;62.04;103702.06;5101671;28;20054;-59
2023/01/24 05:33:03;;;;;;;15.70;11.85;;;;;;;5.06;62.26;103690.66;5103206;28;20116;-58
2023/01/24 05:35:31;;;;;;;17.67;12.20;;;;;;;5.08;62.57;103697.59;5099811;28;20363;-58
2023/01/24 05:37:59;;;;;;;16.70;11.82;;;;;;;5.09;62.93;103698.44;5103147;28;20421;-59
2023/01/24 05:40:26;;;;;;;15.80;11.05;;;;;;;5.11;62.45;103697.34;5097786;28;20066;-58
2023/01/24 05:42:55;;;;;;;15.63;11.13;;;;;;;5.12;62.51;103700.88;5101503;28;20082;-60
2023/01/24 05:45:23;;;;;;;15.45;11.30;;;;;;;5.13;62.52;103699.91;5095782;28;20040;-59
2023/01/24 05:47:51;;;;;;;16.25;11.60;;;;;;;5.12;62.25;103699.06;5101807;28;20059;-59
2023/01/24 05:50:19;;;;;;;17.40;10.82;;;;;;;5.13;62.86;103705.22;5093978;28;20052;-62
2023/01/24 05:52:47;;;;;;;16.48;11.20;;;;;;;5.13;62.18;103706.09;5099978;28;20075;-59
2023/01/24 05:55:15;;;;;;;15.57;11.35;;;;;;;5.11;62.44;103702.69;5101521;28;20060;-59
2023/01/24 05:57:42;;;;;;;15.10;11.20;;;;;;;4.94;62.24;103686.25;5095649;28;20048;-59
2023/01/24 06:00:13;;;;;;;16.08;10.48;;;;;;;5.01;62.60;103715.00;5101044;28;20048;-59
2023/01/24 06:02:41;;;;;;;18.40;12.48;;;;;;;5.01;62.07;103715.00;5096986;28;20366;-59
2023/01/24 06:05:09;;;;;;;16.35;11.98;;;;;;;5.03;62.79;103717.56;5095358;28;20101;-60
2023/01/24 06:07:37;;;;;;;16.08;11.00;;;;;;;5.09;62.38;103719.75;5101160;28;20131;-58
2023/01/24 06:10:05;;;;;;;19.02;12.15;;;;;;;5.21;61.91;103724.97;5101352;28;20051;-59
2023/01/24 06:12:33;;;;;;;15.07;11.63;;;;;;;5.30;61.39;103718.09;5099915;28;20086;-59
2023/01/24 06:15:01;;;;;;;17.88;12.10;;;;;;;5.49;61.14;103726.41;5098928;28;20064;-59
2023/01/24 06:17:30;;;;;;;16.92;11.82;;;;;;;5.61;60.44;103731.75;5100780;28;20581;-59
2023/01/24 06:19:58;;;;;;;16.48;11.35;;;;;;;5.73;59.99;103723.66;5102041;28;20054;-59
2023/01/24 06:22:32;;;;;;;16.77;11.50;;;;;;;5.90;59.83;103724.19;5098449;28;20052;-58
2023/01/24 06:25:00;;;;;;;16.98;10.98;;;;;;;6.00;59.42;103728.69;5100837;28;20048;-60
2023/01/24 06:27:29;;;;;;;15.07;11.00;;;;;;;5.97;59.50;103723.56;5103136;28;20077;-59
2023/01/24 06:29:57;;;;;;;14.13;10.77;;;;;;;5.94;59.63;103730.97;5100624;28;20071;-65
2023/01/24 06:32:40;;;;;;;17.45;11.07;;;;;;;5.83;59.98;103729.97;5086688;28;20075;-65
2023/01/24 06:35:20;;;;;;;16.10;11.60;;;;;;;5.69;59.92;103740.88;5087537;28;20989;-59
2023/01/24 06:37:51;;;;;;;15.57;10.88;;;;;;;5.61;60.42;103742.44;5098957;28;20052;-59
2023/01/24 06:40:20;;;;;;;15.05;10.65;;;;;;;5.55;60.92;103744.59;5102541;28;20071;-60
2023/01/24 06:42:49;;;;;;;14.45;10.48;;;;;;;5.51;61.26;103750.28;4748849;28;10000071;-60
2023/01/24 06:45:17;;;;;;;14.35;10.50;;;;;;;5.43;61.25;103753.53;5092843;28;20561;-59
2023/01/24 06:47:46;;;;;;;14.60;10.38;;;;;;;5.39;60.87;103748.56;5097375;28;20387;-61
2023/01/24 06:50:16;;;;;;;14.25;10.35;;;;;;;5.35;61.47;103745.28;5089678;28;20086;-59
2023/01/24 06:52:45;;;;;;;15.15;10.57;;;;;;;5.35;61.63;103747.09;5099304;28;20169;-59
2023/01/24 06:55:13;;;;;;;15.07;10.10;;;;;;;5.31;61.25;103746.47;5097330;28;20068;-59
2023/01/24 06:57:42;;;;;;;16.58;11.25;;;;;;;5.28;61.36;103740.50;5097104;28;20044;-59
2023/01/24 07:00:11;;;;;;;18.70;12.07;;;;;;;5.25;61.56;103746.94;5101582;28;20067;-60
2023/01/24 07:02:39;;;;;;;14.35;9.90;;;;;;;5.23;61.27;103747.03;5095705;28;20079;-60
2023/01/24 07:05:09;;;;;;;14.50;10.65;;;;;;;5.18;61.40;103746.56;5102580;28;20052;-59
2023/01/24 07:07:37;;;;;;;16.77;10.73;;;;;;;5.16;61.31;103753.84;5095528;28;20072;-59
2023/01/24 07:10:05;;;;;;;15.40;10.75;;;;;;;5.15;61.65;103754.81;5105098;28;20044;-60
2023/01/24 07:12:33;;;;;;;13.55;9.95;;;;;;;4.96;61.56;103761.63;5101006;28;20146;-60
2023/01/24 07:15:01;;;;;;;16.05;11.15;;;;;;;4.95;62.01;103765.25;5105118;28;20161;-61
2023/01/24 07:17:29;;;;;;;14.57;10.38;;;;;;;4.97;61.45;103765.97;5105724;28;20104;-60
2023/01/24 07:19:57;;;;;;;16.27;10.70;;;;;;;4.98;62.08;103767.69;5097250;28;20108;-60
2023/01/24 07:22:27;;;;;;;15.88;11.15;;;;;;;5.00;61.75;103769.28;5113194;28;20127;-60
2023/01/24 07:24:56;;;;;;;14.50;10.20;;;;;;;5.00;61.81;103771.09;5105931;28;20139;-60
2023/01/24 07:27:24;;;;;;;14.27;10.20;;;;;;;5.02;62.14;103769.16;5104595;28;20503;-60
2023/01/24 07:29:52;;;;;;;15.52;10.98;;;;;;;5.01;62.40;103778.13;5104714;28;20425;-60
2023/01/24 07:32:20;;;;;;;15.75;11.02;;;;;;;5.05;62.25;103783.09;5104590;28;20048;-60
2023/01/24 07:34:47;;;;;;;14.23;9.60;;;;;;;5.05;61.89;103791.09;5104288;28;20040;-60
2023/01/24 07:37:21;;;;;;;17.15;10.40;;;;;;;5.05;61.99;103791.09;5100140;28;20048;-60
2023/01/24 07:39:50;;;;;;;15.10;10.45;;;;;;;4.98;62.64;103797.84;5100033;28;20065;-58
2023/01/24 07:42:18;;;;;;;16.98;11.77;;;;;;;4.85;62.51;103799.72;5094198;28;20045;-60
2023/01/24 07:44:45;;;;;;;14.88;10.95;;;;;;;4.88;61.97;103797.66;5103625;28;20508;-60
2023/01/24 07:47:13;;;;;;;14.75;10.27;;;;;;;4.90;62.23;103800.22;5099847;28;20140;-60
2023/01/24 07:49:41;;;;;;;16.48;10.90;;;;;;;4.93;61.90;103800.00;5104533;28;20083;-59
2023/01/24 07:52:09;;;;;;;13.68;10.25;;;;;;;4.95;62.52;103798.06;5100211;28;20048;-59
2023/01/24 07:54:36;;;;;;;14.95;10.10;;;;;;;4.97;62.42;103796.16;5104714;28;20138;-59
2023/01/24 07:57:07;;;;;;;15.43;10.40;;;;;;;5.00;61.87;103803.06;5104470;28;20040;-59
2023/01/24 07:59:35;;;;;;;13.23;9.27;;;;;;;5.00;62.37;103811.06;5103966;28;20082;-59
2023/01/24 08:02:06;;;;;;;15.65;10.98;;;;;;;4.99;62.38;103804.88;5104250;28;20044;-59
2023/01/24 08:04:34;;;;;;;13.65;9.75;;;;;;;4.97;61.71;103808.63;5104502;28;20044;-59
2023/01/24 08:07:17;;;;;;;14.32;9.85;;;;;;;4.96;61.76;103809.59;5104496;28;20093;-59
2023/01/24 08:09:46;;;;;;;16.65;10.80;;;;;;;4.96;62.03;103806.91;5104333;28;20036;-59
2023/01/24 08:12:16;;;;;;;14.30;10.05;;;;;;;4.98;62.20;103815.66;5105019;28;20383;-59
2023/01/24 08:14:44;;;;;;;11.85;8.90;;;;;;;4.96;62.24;103813.09;5103459;28;20230;-59
2023/01/24 08:17:12;;;;;;;15.20;10.10;;;;;;;4.97;61.93;103814.81;5102890;28;20040;-59
2023/01/24 08:19:40;;;;;;;15.07;10.65;;;;;;;4.98;62.30;103813.00;5104748;28;20054;-59
2023/01/24 08:22:25;;;;;;;15.07;10.75;;;;;;;4.96;61.78;103815.75;5099179;28;20040;-59
2023/01/24 08:24:53;;;;;;;16.60;11.15;;;;;;;4.98;61.87;103815.66;5103701;28;20059;-59
2023/01/24 08:27:22;;;;;;;13.65;9.23;;;;;;;4.98;61.83;103815.66;5093995;28;20068;-59
2023/01/24 08:29:49;;;;;;;16.52;11.23;;;;;;;4.98;62.27;103813.84;5103389;28;20045;-59
2023/01/24 08:32:17;;;;;;;14.65;9.77;;;;;;;4.99;62.56;103820.03;5105140;28;20506;-59
2023/01/24 08:34:45;;;;;;;14.57;9.95;;;;;;;4.96;62.51;103810.44;5103201;28;20115;-59
2023/01/24 08:37:13;;;;;;;17.08;10.82;;;;;;;4.98;61.97;103824.50;5096995;28;20043;-59
2023/01/24 08:39:41;;;;;;;13.40;9.00;;;;;;;4.97;61.99;103828.13;5093860;28;20068;-59
2023/01/24 08:42:10;;;;;;;14.63;10.27;;;;;;;4.97;62.04;103829.94;5098451;28;20056;-59
2023/01/24 08:44:39;;;;;;;14.63;9.85;;;;;;;4.93;62.33;103833.78;5094508;28;20084;-59
2023/01/24 08:47:06;;;;;;;16.35;10.35;;;;;;;4.95;62.09;103835.38;5104630;28;20072;-59
2023/01/24 08:49:34;;;;;;;14.40;9.63;;;;;;;4.93;62.27;103836.47;5099261;28;20052;-59
2023/01/24 08:52:02;;;;;;;14.43;9.95;;;;;;;4.93;62.59;103841.78;5100935;28;20045;-60
2023/01/24 08:54:32;;;;;;;14.60;10.10;;;;;;;4.94;62.46;103831.00;5104394;28;20115;-58
2023/01/24 08:56:59;;;;;;;13.85;9.75;;;;;;;4.96;62.47;103838.91;5104649;28;20066;-59
2023/01/24 08:59:27;;;;;;;14.85;10.55;;;;;;;4.96;62.44;103842.41;5099111;28;20048;-59
2023/01/24 09:01:56;;;;;;;14.63;10.45;;;;;;;4.97;62.06;103846.78;5104118;28;20108;-59
2023/01/24 09:04:26;;;;;;;14.18;10.43;;;;;;;4.95;62.37;103832.72;5098422;28;20084;-59
2023/01/24 09:06:54;;;;;;;16.05;10.38;;;;;;;4.95;62.24;103840.72;5103924;28;20078;-59
2023/01/24 09:09:24;;;;;;;14.35;9.70;;;;;;;4.96;62.34;103847.75;5103279;28;20043;-59
2023/01/24 09:11:53;;;;;;;15.80;9.68;;;;;;;4.97;62.07;103849.44;5096935;28;20063;-59
2023/01/24 09:14:20;;;;;;;16.50;11.15;;;;;;;4.98;61.87;103853.81;5099856;28;20048;-60
2023/01/24 09:16:48;;;;;;;15.48;10.02;;;;;;;4.97;61.89;103857.44;5103223;28;20063;-59
2023/01/24 09:19:18;;;;;;;14.60;9.77;;;;;;;4.97;61.97;103854.78;5093466;28;20044;-59
2023/01/24 09:21:50;;;;;;;15.75;10.15;;;;;;;4.96;62.50;103854.88;5102977;28;20099;-59
2023/01/24 09:24:18;;;;;;;14.77;10.07;;;;;;;4.95;62.20;103850.53;5102806;28;20075;-60
2023/01/24 09:26:46;;;;;;;15.95;10.20;;;;;;;4.96;62.41;103858.41;5103997;28;20058;-58
2023/01/24 09:29:14;;;;;;;13.45;8.90;;;;;;;4.98;62.10;103843.16;5101105;28;20139;-59
2023/01/24 09:31:42;;;;;;;15.65;9.93;;;;;;;5.00;62.43;103851.03;5103759;28;20048;-58
2023/01/24 09:34:09;;;;;;;13.48;9.80;;;;;;;4.99;62.47;103857.34;5094456;28;20049;-59
2023/01/24 09:36:39;;;;;;;14.98;10.18;;;;;;;4.94;62.00;103849.66;5103326;28;20519;-59
2023/01/24 09:39:06;;;;;;;15.38;10.13;;;;;;;4.96;61.67;103850.41;5102292;28;20116;-59
2023/01/24 09:41:51;;;;;;;14.70;10.25;;;;;;;4.97;61.64;103854.78;5103783;28;20130;-58
2023/01/24 09:44:43;;;;;;;16.85;10.10;;;;;;;4.93;61.42;103855.13;5102620;28;20052;-59
2023/01/24 09:47:19;;;;;;;14.52;9.80;;;;;;;4.94;61.57;103856.81;5102409;28;20036;-59
2023/01/24 09:49:52;;;;;;;13.70;9.35;;;;;;;4.95;62.15;103847.84;5095450;28;20086;-60
2023/01/24 09:52:30;;;;;;;14.85;10.15;;;;;;;4.96;62.66;103853.06;5100727;28;20103;-58
2023/01/24 09:55:04;;;;;;;15.23;9.40;;;;;;;5.00;62.15;103856.38;5097627;28;20048;-59
2023/01/24 09:57:43;;;;;;;14.90;9.68;;;;;;;5.00;62.00;103857.22;5090659;28;20048;-59
2023/01/24 10:00:18;;;;;;;14.23;9.45;;;;;;;4.99;62.08;103860.00;5099839;28;20131;-59
2023/01/24 10:02:47;;;;;;;13.13;9.45;;;;;;;4.98;62.12;103861.81;5097284;28;20104;-59
2023/01/24 10:05:17;;;;;;;14.10;9.35;;;;;;;4.98;62.34;103861.81;5099933;28;20087;-58
2023/01/24 10:08:20;;;;;;;13.35;9.50;;;;;;;4.99;62.18;103868.00;5102242;28;20054;-59
2023/01/24 10:10:54;;;;;;;15.93;9.65;;;;;;;5.00;62.21;103869.69;5092498;28;20052;-59
2023/01/24 10:13:43;;;;;;;12.75;9.38;;;;;;;4.99;61.66;103871.50;5103174;28;20083;-59
2023/01/24 10:16:23;;;;;;;13.68;9.13;;;;;;;4.97;62.05;103870.78;5091089;28;20052;-58
2023/01/24 10:19:03;;;;;;;13.00;9.05;;;;;;;4.99;61.80;103871.50;5100898;28;20048;-59
2023/01/24 10:21:51;;;;;;;15.63;10.30;;;;;;;4.94;61.77;103876.31;5102507;28;20505;-59
2023/01/24 10:24:26;;;;;;;13.82;9.30;;;;;;;4.96;61.61;103873.53;5108163;28;20047;-59
2023/01/24 10:26:54;;;;;;;13.10;9.55;;;;;;;4.91;61.31;103873.88;5103100;28;20052;-58
2023/01/24 10:29:23;;;;;;;15.30;10.07;;;;;;;4.92;62.00;103866.72;5105727;28;20108;-59
2023/01/24 10:31:57;;;;;;;12.82;8.93;;;;;;;4.91;61.61;103868.56;5104528;28;20047;-58
2023/01/24 10:34:33;;;;;;;14.57;9.75;;;;;;;4.93;61.44;103868.44;5105185;28;20048;-59
2023/01/24 10:37:06;;;;;;;13.40;9.20;;;;;;;4.94;61.32;103873.66;5106753;28;20075;-58
2023/01/24 10:39:35;;;;;;;12.45;8.38;;;;;;;4.86;61.86;103871.53;5104664;28;20104;-59
2023/01/24 10:42:18;;;;;;;14.50;9.35;;;;;;;4.85;61.42;103864.50;5097673;28;20055;-59
2023/01/24 10:44:48;;;;;;;13.75;9.25;;;;;;;4.86;61.41;103860.88;5098515;28;20085;-59
2023/01/24 10:47:42;;;;;;;15.43;8.90;;;;;;;4.88;61.93;103866.09;5106246;28;20048;-59
2023/01/24 10:50:13;;;;;;;12.95;9.55;;;;;;;4.92;61.89;103864.06;5104162;28;20104;-59
2023/01/24 10:52:41;;;;;;;15.80;9.80;;;;;;;4.94;61.66;103864.81;5091160;28;20047;-58
2023/01/24 10:55:27;;;;;;;11.68;7.95;;;;;;;4.96;62.24;103860.22;5100022;28;20496;-58
2023/01/24 10:57:55;;;;;;;12.93;8.93;;;;;;;4.94;61.76;103857.66;5097427;28;20100;-58
2023/01/24 11:00:32;;;;;;;14.00;9.00;;;;;;;5.00;61.60;103865.22;5102302;28;20123;-59
2023/01/24 11:03:02;;;;;;;12.43;9.15;;;;;;;4.99;61.38;103863.50;5104899;28;20040;-59
2023/01/24 11:05:40;;;;;;;13.32;9.05;;;;;;;4.90;62.27;103854.38;5102486;28;20055;-61
2023/01/24 11:08:18;;;;;;;13.10;9.13;;;;;;;4.94;62.46;103852.34;4744661;28;10000484;-58
2023/01/24 11:10:51;;;;;;;11.88;8.13;;;;;;;5.07;61.97;103847.81;5101462;28;20055;-58
2023/01/24 11:13:27;;;;;;;13.23;8.38;;;;;;;5.22;60.75;103844.00;5097901;28;20126;-58
2023/01/24 11:16:02;;;;;;;14.13;9.00;;;;;;;5.38;60.68;103850.84;5102091;28;20068;-57
2023/01/24 11:18:33;;;;;;;11.52;7.75;;;;;;;5.58;60.67;103844.88;5102674;28;20493;-58
2023/01/24 11:21:13;;;;;;;12.07;8.23;;;;;;;5.76;59.69;103845.31;5099055;28;20434;-57
2023/01/24 11:23:41;;;;;;;10.88;7.38;;;;;;;5.93;59.69;103836.91;5102788;28;20055;-57
2023/01/24 11:26:26;;;;;;;12.95;7.95;;;;;;;6.13;59.18;103843.38;5098793;28;20044;-57
2023/01/24 11:28:58;;;;;;;11.20;7.55;;;;;;;6.32;58.31;103827.59;5090531;28;20044;-57
2023/01/24 11:31:31;;;;;;;11.00;7.90;;;;;;;6.50;57.95;103826.16;5098233;28;20070;-58
2023/01/24 11:34:18;;;;;;;11.25;7.63;;;;;;;6.65;57.26;103828.56;5102511;28;20128;-58
2023/01/24 11:36:59;;;;;;;11.63;7.85;;;;;;;6.81;56.75;103834.38;5095334;28;20058;-57
2023/01/24 11:39:39;;;;;;;12.05;7.70;;;;;;;6.92;56.03;103821.00;5101243;28;20056;-58
2023/01/24 11:42:17;;;;;;;11.05;7.40;;;;;;;6.96;56.40;103816.22;5098817;28;20131;-57
2023/01/24 11:44:59;;;;;;;9.95;7.03;;;;;;;7.02;55.95;103821.06;5098903;28;20127;-58
2023/01/24 11:47:34;;;;;;;14.35;7.68;;;;;;;7.05;56.36;103810.13;5091620;28;20052;-57
2023/01/24 11:50:28;;;;;;;12.07;7.55;;;;;;;6.99;55.85;103819.50;5100766;28;20153;-58
2023/01/24 11:53:14;;;;;;;13.80;7.93;;;;;;;6.93;55.29;103814.69;5098956;28;20414;-57
2023/01/24 11:55:52;;;;;;;11.90;7.75;;;;;;;6.97;56.00;103815.25;5097208;28;20095;-57
2023/01/24 11:58:39;;;;;;;13.77;8.32;;;;;;;7.03;56.05;103812.94;5099985;28;20111;-58
2023/01/24 12:01:15;;;;;;;11.52;8.00;;;;;;;7.09;55.69;103806.22;5101546;28;20048;-57
2023/01/24 12:04:18;;;;;;;11.85;7.80;;;;;;;7.17;55.12;103807.28;5096424;28;20086;-60
2023/01/24 12:06:53;;;;;;;14.93;8.52;;;;;;;7.18;55.27;103800.97;5074909;28;20108;-58
2023/01/24 12:09:22;;;;;;;11.13;7.35;;;;;;;7.20;55.04;103795.47;5098835;28;20087;-58
2023/01/24 12:12:04;;;;;;;11.98;7.88;;;;;;;7.19;54.91;103789.28;5104328;28;20360;-58